createdAt,value
2023-04-22T00:00:36.477Z,94343.19
2023-04-22T00:03:04.458Z,94336.66
2023-04-22T00:05:32.255Z,94338.22
2023-04-22T00:08:01.806Z,94336.53
2023-04-22T00:10:29.487Z,94334.88
2023-04-22T00:12:57.163Z,94328.84
2023-04-22T00:15:26.638Z,94333.59
2023-04-22T00:17:54.465Z,94330.66
2023-04-22T00:20:22.584Z,94324.41
2023-04-22T00:22:50.286Z,94326.19
2023-04-22T00:25:19.514Z,94321.81
2023-04-22T00:27:47.287Z,94321.63
2023-04-22T00:30:16.706Z,94326.81
2023-04-22T00:32:44.352Z,94326.25
2023-04-22T00:35:12.044Z,94322.63
2023-04-22T00:37:39.827Z,94319.97
2023-04-22T00:40:08.940Z,94326.56
2023-04-22T00:42:38.469Z,94318.41
2023-04-22T00:45:07.061Z,94332.78
2023-04-22T00:47:35.020Z,94321.69
2023-04-22T00:50:02.870Z,94329.53
2023-04-22T00:52:31.078Z,94324.84
2023-04-22T00:54:58.859Z,94320.47
2023-04-22T00:57:26.699Z,94321.88
2023-04-22T00:59:56.467Z,94322.00
2023-04-22T01:02:24.432Z,94323.19
2023-04-22T01:04:54.163Z,94329.75
2023-04-22T01:07:21.960Z,94328.91
2023-04-22T01:09:49.759Z,94323.19
2023-04-22T01:12:17.467Z,94326.63
2023-04-22T01:14:45.224Z,94319.59
2023-04-22T01:17:14.525Z,94322.78
2023-04-22T01:19:43.529Z,94312.50
2023-04-22T01:22:13.107Z,94325.00
2023-04-22T01:24:42.452Z,94316.97
2023-04-22T01:27:10.357Z,94326.84
2023-04-22T01:29:39.321Z,94324.22
2023-04-22T01:32:07.983Z,94328.56
2023-04-22T01:34:35.806Z,94322.66
2023-04-22T01:37:03.576Z,94320.75
2023-04-22T01:39:31.440Z,94321.84
2023-04-22T01:42:02.186Z,94327.44
2023-04-22T01:44:30.053Z,94324.59
2023-04-22T01:46:57.915Z,94329.78
2023-04-22T01:49:25.676Z,94327.31
2023-04-22T01:51:53.437Z,94328.97
2023-04-22T01:54:21.164Z,94330.03
2023-04-22T01:56:52.658Z,94333.81
2023-04-22T01:59:22.237Z,94335.44
2023-04-22T02:01:50.102Z,94331.94
2023-04-22T02:04:18.050Z,94335.44
2023-04-22T02:06:45.719Z,94336.53
2023-04-22T02:09:13.416Z,94330.97
2023-04-22T02:11:41.108Z,94329.81
2023-04-22T02:14:08.780Z,94327.81
2023-04-22T02:16:37.963Z,94332.84
2023-04-22T02:19:05.881Z,94335.56
2023-04-22T02:21:33.735Z,94337.38
2023-04-22T02:24:01.690Z,94335.25
2023-04-22T02:26:30.833Z,94340.91
2023-04-22T02:28:58.698Z,94334.34
2023-04-22T02:31:26.694Z,94334.06
2023-04-22T02:33:55.913Z,94335.16
2023-04-22T02:36:23.732Z,94333.19
2023-04-22T02:38:51.341Z,94333.09
2023-04-22T02:41:18.994Z,94342.78
2023-04-22T02:43:46.937Z,94339.47
2023-04-22T02:46:16.355Z,94343.50
2023-04-22T02:48:44.320Z,94349.50
2023-04-22T02:51:13.414Z,94343.44
2023-04-22T02:53:41.240Z,94338.16
2023-04-22T02:56:09.544Z,94336.03
2023-04-22T02:58:37.324Z,94339.78
2023-04-22T03:01:05.332Z,94337.06
2023-04-22T03:03:33.211Z,94334.19
2023-04-22T03:06:01.029Z,94334.81
2023-04-22T03:08:30.056Z,94332.84
2023-04-22T03:10:57.769Z,94333.91
2023-04-22T03:13:25.397Z,94332.50
2023-04-22T03:15:53.163Z,94329.69
2023-04-22T03:18:20.809Z,94328.88
2023-04-22T03:20:48.444Z,94325.59
2023-04-22T03:23:16.098Z,94331.16
2023-04-22T03:25:45.158Z,94327.75
2023-04-22T03:28:12.803Z,94327.63
2023-04-22T03:30:40.633Z,94320.03
2023-04-22T03:33:08.726Z,94322.47
2023-04-22T03:35:36.547Z,94321.19
2023-04-22T03:38:04.215Z,94314.63
2023-04-22T03:40:31.923Z,94325.81
2023-04-22T03:43:00.907Z,94325.72
2023-04-22T03:45:28.555Z,94323.94
2023-04-22T03:47:56.473Z,94328.19
2023-04-22T03:50:24.378Z,94321.97
2023-04-22T03:52:52.069Z,94324.91
2023-04-22T03:55:19.766Z,94328.81
2023-04-22T03:57:47.396Z,94333.63
2023-04-22T04:00:16.863Z,94334.09
2023-04-22T04:02:44.940Z,94323.28
2023-04-22T04:05:12.887Z,94330.34
2023-04-22T04:07:41.043Z,94324.38
2023-04-22T04:10:09.949Z,94330.34
2023-04-22T04:12:37.730Z,94322.81
2023-04-22T04:15:06.570Z,94326.59
2023-04-22T04:17:36.322Z,94330.59
2023-04-22T04:20:04.122Z,94325.88
2023-04-22T04:22:31.941Z,94330.00
2023-04-22T04:24:59.752Z,94324.50
2023-04-22T04:27:27.914Z,94334.13
2023-04-22T04:29:56.021Z,94331.41
2023-04-22T04:32:24.286Z,94335.53
2023-04-22T04:34:53.955Z,94339.41
2023-04-22T04:37:22.406Z,94337.06
2023-04-22T04:39:50.207Z,94342.56
2023-04-22T04:42:18.115Z,94347.97
2023-04-22T04:44:47.488Z,94340.47
2023-04-22T04:47:16.007Z,94340.00
2023-04-22T04:49:43.811Z,94342.34
2023-04-22T04:52:12.798Z,94335.06
2023-04-22T04:54:40.470Z,94334.09
2023-04-22T04:57:10.087Z,94328.22
2023-04-22T04:59:38.005Z,94327.41
2023-04-22T05:02:05.903Z,94326.69
2023-04-22T05:04:33.748Z,94334.69
2023-04-22T05:07:01.805Z,94336.81
2023-04-22T05:09:32.949Z,94327.13
2023-04-22T05:12:00.753Z,94334.31
2023-04-22T05:14:28.425Z,94333.44
2023-04-22T05:16:56.159Z,94332.00
2023-04-22T05:19:23.817Z,94339.50
2023-04-22T05:21:51.485Z,94337.22
2023-04-22T05:24:19.135Z,94354.75
2023-04-22T05:26:48.131Z,94351.41
2023-04-22T05:29:15.830Z,94361.94
2023-04-22T05:31:43.554Z,94362.47
2023-04-22T05:34:11.999Z,94361.00
2023-04-22T05:36:39.767Z,94365.88
2023-04-22T05:39:07.823Z,94366.88
2023-04-22T05:41:35.597Z,94370.31
2023-04-22T05:44:04.583Z,94370.47
2023-04-22T05:46:32.338Z,94379.28
2023-04-22T05:49:00.118Z,94387.59
2023-04-22T05:51:27.844Z,94382.59
2023-04-22T05:53:55.515Z,94379.53
2023-04-22T05:56:23.296Z,94390.28
2023-04-22T05:58:51.015Z,94384.00
2023-04-22T06:01:20.087Z,94387.16
2023-04-22T06:03:48.090Z,94378.97
2023-04-22T06:06:15.964Z,94383.19
2023-04-22T06:08:43.718Z,94375.78
2023-04-22T06:11:11.580Z,94380.63
2023-04-22T06:13:39.284Z,94376.97
2023-04-22T06:18:38.234Z,94379.03
2023-04-22T06:21:06.592Z,94383.50
2023-04-22T06:23:34.257Z,94383.06
2023-04-22T06:26:02.298Z,94383.41
2023-04-22T06:28:29.954Z,94376.94
2023-04-22T06:30:57.717Z,94380.81
2023-04-22T06:33:25.436Z,94376.50
2023-04-22T06:35:54.524Z,94385.00
2023-04-22T06:38:22.144Z,94380.69
2023-04-22T06:40:49.822Z,94379.91
2023-04-22T06:43:17.494Z,94384.88
2023-04-22T06:45:45.181Z,94382.44
2023-04-22T06:48:12.796Z,94385.22
2023-04-22T06:50:40.501Z,94379.84
2023-04-22T06:53:09.904Z,94387.53
2023-04-22T06:55:37.594Z,94388.09
2023-04-22T06:58:05.235Z,94386.50
2023-04-22T07:00:32.911Z,94379.94
2023-04-22T07:03:00.732Z,94384.31
2023-04-22T07:05:28.493Z,94379.94
2023-04-22T07:07:56.113Z,94377.72
2023-04-22T07:10:25.765Z,94380.41
2023-04-22T07:12:53.493Z,94382.31
2023-04-22T07:15:21.192Z,94381.47
2023-04-22T07:17:48.891Z,94384.94
2023-04-22T07:20:16.742Z,94381.22
2023-04-22T07:22:44.424Z,94387.38
2023-04-22T07:25:12.070Z,94374.88
2023-04-22T07:27:41.077Z,94373.09
2023-04-22T07:30:10.136Z,94367.31
2023-04-22T07:32:37.798Z,94382.22
2023-04-22T07:35:06.118Z,94375.19
2023-04-22T07:37:33.770Z,94380.44
2023-04-22T07:40:01.429Z,94376.28
2023-04-22T07:42:29.042Z,94369.94
2023-04-22T07:44:58.091Z,94371.94
2023-04-22T07:47:25.912Z,94381.16
2023-04-22T07:49:53.619Z,94379.97
2023-04-22T07:52:21.267Z,94386.34
2023-04-22T07:54:48.965Z,94383.03
2023-04-22T07:57:16.606Z,94376.59
2023-04-22T07:59:44.301Z,94385.00
2023-04-22T08:02:13.532Z,94387.03
2023-04-22T08:04:41.322Z,94376.78
2023-04-22T08:07:26.817Z,94380.97
2023-04-22T08:09:57.053Z,94380.72
2023-04-22T08:12:24.910Z,94380.00
2023-04-22T08:14:52.561Z,94383.50
2023-04-22T08:17:22.250Z,94386.47
2023-04-22T08:19:50.221Z,94386.78
2023-04-22T08:22:18.871Z,94390.72
2023-04-22T08:24:46.550Z,94385.81
2023-04-22T08:27:14.222Z,94378.22
2023-04-22T08:29:42.125Z,94378.97
2023-04-22T08:32:10.144Z,94376.13
2023-04-22T08:34:39.189Z,94379.88
2023-04-22T08:37:06.878Z,94381.59
2023-04-22T08:39:34.543Z,94381.81
2023-04-22T08:42:02.281Z,94378.22
2023-04-22T08:44:29.964Z,94375.50
2023-04-22T08:46:57.763Z,94376.19
2023-04-22T08:49:25.882Z,94372.59
2023-04-22T08:51:56.089Z,94370.84
2023-04-22T08:54:24.637Z,94379.19
2023-04-22T08:56:52.625Z,94377.97
2023-04-22T08:59:21.569Z,94371.56
2023-04-22T09:01:53.761Z,94373.97
2023-04-22T09:04:21.725Z,94365.34
2023-04-22T09:06:49.487Z,94371.88
2023-04-22T09:09:18.584Z,94364.66
2023-04-22T09:11:46.304Z,94368.63
2023-04-22T09:14:14.000Z,94358.06
2023-04-22T09:16:42.890Z,94358.56
2023-04-22T09:19:12.821Z,94359.47
2023-04-22T09:21:40.714Z,94351.94
2023-04-22T09:24:09.983Z,94350.00
2023-04-22T09:26:42.289Z,94349.50
2023-04-22T09:29:14.698Z,94344.09
2023-04-22T09:31:42.500Z,94350.38
2023-04-22T09:34:10.331Z,94347.81
2023-04-22T09:36:38.375Z,94359.06
2023-04-22T09:39:08.617Z,94356.16
2023-04-22T09:41:38.765Z,94352.88
2023-04-22T09:44:11.047Z,94341.84
2023-04-22T09:46:38.682Z,94336.53
2023-04-22T09:49:06.473Z,94333.50
2023-04-22T09:51:34.565Z,94335.94
2023-04-22T09:54:06.245Z,94332.06
2023-04-22T09:56:50.155Z,94335.41
2023-04-22T09:59:23.454Z,94321.25
2023-04-22T10:01:52.637Z,94321.91
2023-04-22T10:04:23.238Z,94311.09
2023-04-22T10:06:51.563Z,94308.19
2023-04-22T10:09:20.440Z,94312.59
2023-04-22T10:11:48.990Z,94311.53
2023-04-22T10:14:16.632Z,94300.31
2023-04-22T10:16:47.617Z,94306.91
2023-04-22T10:19:19.056Z,94310.00
2023-04-22T10:21:47.912Z,94303.81
2023-04-22T10:24:16.950Z,94304.81
2023-04-22T10:26:49.318Z,94298.59
2023-04-22T10:29:18.378Z,94304.91
2023-04-22T10:31:54.304Z,94301.91
2023-04-22T10:34:22.026Z,94286.59
2023-04-22T10:36:57.429Z,94290.53
2023-04-22T10:39:25.833Z,94294.09
2023-04-22T10:41:56.120Z,94294.97
2023-04-22T10:44:24.335Z,94288.59
2023-04-22T10:47:03.044Z,94290.03
2023-04-22T10:49:32.666Z,94293.06
2023-04-22T10:52:03.960Z,94283.31
2023-04-22T10:55:02.656Z,94288.47
2023-04-22T10:57:37.855Z,94283.78
2023-04-22T11:00:35.311Z,94291.84
2023-04-22T11:03:17.444Z,94293.84
2023-04-22T11:05:45.739Z,94286.44
2023-04-22T11:08:16.610Z,94279.47
2023-04-22T11:10:45.372Z,94289.00
2023-04-22T11:13:15.664Z,94281.59
2023-04-22T11:15:44.696Z,94285.31
2023-04-22T11:18:20.968Z,94292.38
2023-04-22T11:20:49.851Z,94281.50
2023-04-22T11:23:22.907Z,94281.69
2023-04-22T11:25:55.686Z,94287.41
2023-04-22T11:28:23.502Z,94288.53
2023-04-22T11:30:51.906Z,94281.69
2023-04-22T11:33:21.172Z,94280.66
2023-04-22T11:35:50.657Z,94281.69
2023-04-22T11:38:18.336Z,94280.09
2023-04-22T11:40:47.244Z,94289.31
2023-04-22T11:43:15.392Z,94294.72
2023-04-22T11:45:43.207Z,94285.59
2023-04-22T11:48:12.472Z,94281.22
2023-04-22T11:50:44.139Z,94280.22
2023-04-22T11:53:16.062Z,94283.97
2023-04-22T11:55:44.469Z,94277.22
2023-04-22T11:58:14.189Z,94279.69
2023-04-22T12:00:43.499Z,94274.25
2023-04-22T12:03:15.602Z,94279.22
2023-04-22T12:05:46.229Z,94278.09
2023-04-22T12:08:16.180Z,94282.44
2023-04-22T12:10:45.713Z,94281.63
2023-04-22T12:13:19.788Z,94272.00
2023-04-22T12:15:47.457Z,94268.03
2023-04-22T12:18:15.116Z,94267.06
2023-04-22T12:20:43.255Z,94269.22
2023-04-22T12:23:16.363Z,94269.97
2023-04-22T12:25:44.497Z,94270.91
2023-04-22T12:28:13.021Z,94268.94
2023-04-22T12:30:40.792Z,94264.44
2023-04-22T12:33:09.391Z,94264.41
2023-04-22T12:35:37.323Z,94261.13
2023-04-22T12:38:05.042Z,94254.38
2023-04-22T12:40:34.058Z,94257.34
2023-04-22T12:43:05.886Z,94253.88
2023-04-22T12:45:33.528Z,94248.53
2023-04-22T12:48:01.193Z,94252.41
2023-04-22T12:50:28.934Z,94250.78
2023-04-22T12:52:56.595Z,94239.81
2023-04-22T12:55:24.273Z,94240.13
2023-04-22T12:57:53.529Z,94233.84
2023-04-22T13:00:21.390Z,94230.03
2023-04-22T13:02:50.275Z,94229.16
2023-04-22T13:05:19.509Z,94241.66
2023-04-22T13:07:59.664Z,94226.41
2023-04-22T13:10:34.161Z,94228.84
2023-04-22T13:13:16.695Z,94238.31
2023-04-22T13:15:45.876Z,94232.81
2023-04-22T13:18:13.646Z,94219.88
2023-04-22T13:20:42.407Z,94219.31
2023-04-22T13:23:10.659Z,94219.78
2023-04-22T13:25:38.592Z,94218.25
2023-04-22T13:28:07.657Z,94225.81
2023-04-22T13:30:35.482Z,94220.81
2023-04-22T13:33:03.440Z,94216.03
2023-04-22T13:35:31.712Z,94209.91
2023-04-22T13:37:59.584Z,94214.94
2023-04-22T13:40:27.672Z,94210.66
2023-04-22T13:42:55.512Z,94204.91
2023-04-22T13:45:25.626Z,94208.59
2023-04-22T13:47:54.656Z,94205.22
2023-04-22T13:50:22.598Z,94195.69
2023-04-22T13:52:50.398Z,94197.63
2023-04-22T13:55:18.960Z,94194.66
2023-04-22T13:57:46.743Z,94193.78
2023-04-22T14:00:15.075Z,94194.97
2023-04-22T14:02:44.276Z,94199.56
2023-04-22T14:05:11.981Z,94188.13
2023-04-22T14:07:39.650Z,94191.66
2023-04-22T14:10:11.938Z,94184.06
2023-04-22T14:12:39.926Z,94191.16
2023-04-22T14:15:10.838Z,94189.31
2023-04-22T14:17:38.752Z,94186.88
2023-04-22T14:20:11.083Z,94190.88
2023-04-22T14:22:38.873Z,94187.19
2023-04-22T14:25:07.942Z,94183.63
2023-04-22T14:27:35.757Z,94179.69
2023-04-22T14:30:04.357Z,94187.31
2023-04-22T14:32:34.323Z,94180.84
2023-04-22T14:35:02.029Z,94178.66
2023-04-22T14:37:32.042Z,94181.91
2023-04-22T14:39:59.853Z,94165.19
2023-04-22T14:42:27.652Z,94175.63
2023-04-22T14:44:55.339Z,94176.09
2023-04-22T14:47:23.379Z,94175.06
2023-04-22T14:49:51.160Z,94169.84
2023-04-22T14:52:18.826Z,94166.97
2023-04-22T14:54:51.276Z,94163.16
2023-04-22T14:57:19.590Z,94155.63
2023-04-22T14:59:47.284Z,94164.44
2023-04-22T15:02:16.081Z,94162.69
2023-04-22T15:04:43.946Z,94161.88
2023-04-22T15:07:11.650Z,94155.28
2023-04-22T15:09:39.777Z,94159.56
2023-04-22T15:12:09.111Z,94159.38
2023-04-22T15:14:37.177Z,94164.72
2023-04-22T15:17:05.438Z,94159.91
2023-04-22T15:19:33.356Z,94165.94
2023-04-22T15:22:01.084Z,94169.41
2023-04-22T15:24:28.828Z,94165.13
2023-04-22T15:26:56.822Z,94170.97
2023-04-22T15:29:26.670Z,94166.59
2023-04-22T15:31:54.669Z,94163.38
2023-04-22T15:34:22.610Z,94174.97
2023-04-22T15:36:50.581Z,94170.72
2023-04-22T15:39:18.403Z,94172.81
2023-04-22T15:41:46.548Z,94175.13
2023-04-22T15:44:16.132Z,94170.22
2023-04-22T15:46:46.427Z,94174.16
2023-04-22T15:49:14.748Z,94173.84
2023-04-22T15:51:43.180Z,94173.72
2023-04-22T15:54:11.073Z,94168.63
2023-04-22T15:56:38.740Z,94169.19
2023-04-22T15:59:06.887Z,94166.75
2023-04-22T16:01:34.604Z,94165.72
2023-04-22T16:04:03.912Z,94156.56
2023-04-22T16:06:32.181Z,94162.34
2023-04-22T16:08:59.924Z,94168.03
2023-04-22T16:11:27.616Z,94165.41
2023-04-22T16:13:55.328Z,94172.44
2023-04-22T16:16:23.751Z,94161.88
2023-04-22T16:18:51.482Z,94161.13
2023-04-22T16:21:20.540Z,94163.22
2023-04-22T16:23:48.619Z,94164.97
2023-04-22T16:26:16.403Z,94165.59
2023-04-22T16:28:44.306Z,94165.69
2023-04-22T16:31:12.095Z,94157.78
2023-04-22T16:33:39.925Z,94162.78
2023-04-22T16:36:08.918Z,94160.56
2023-04-22T16:38:38.001Z,94170.28
2023-04-22T16:41:05.850Z,94172.72
2023-04-22T16:43:33.552Z,94166.09
2023-04-22T16:46:01.869Z,94159.25
2023-04-22T16:48:29.762Z,94163.66
2023-04-22T16:50:57.406Z,94162.72
2023-04-22T16:53:25.080Z,94155.41
2023-04-22T16:55:54.104Z,94163.25
2023-04-22T16:58:21.782Z,94166.72
2023-04-22T17:00:49.560Z,94158.94
2023-04-22T17:03:17.355Z,94164.66
2023-04-22T17:05:45.097Z,94163.31
2023-04-22T17:08:12.752Z,94157.97
2023-04-22T17:10:44.919Z,94170.47
2023-04-22T17:13:14.694Z,94172.91
2023-04-22T17:15:42.724Z,94172.44
2023-04-22T17:18:10.678Z,94175.72
2023-04-22T17:20:38.524Z,94170.53
2023-04-22T17:23:06.188Z,94178.00
2023-04-22T17:25:33.798Z,94178.19
2023-04-22T17:28:01.483Z,94175.28
2023-04-22T17:30:30.567Z,94177.25
2023-04-22T17:32:59.212Z,94182.63
2023-04-22T17:35:26.925Z,94180.56
2023-04-22T17:37:54.637Z,94187.25
2023-04-22T17:40:22.879Z,94183.34
2023-04-22T17:42:51.188Z,94189.56
2023-04-22T17:45:18.914Z,94185.34
2023-04-22T17:47:48.714Z,94179.19
2023-04-22T17:50:16.466Z,94183.09
2023-04-22T17:52:44.502Z,94184.88
2023-04-22T17:55:12.123Z,94184.56
2023-04-22T17:57:39.780Z,94185.69
2023-04-22T18:00:10.079Z,94193.34
2023-04-22T18:02:37.865Z,94195.78
2023-04-22T18:05:07.471Z,94201.09
2023-04-22T18:07:35.575Z,94204.50
2023-04-22T18:10:03.308Z,94207.56
2023-04-22T18:12:31.256Z,94206.78
2023-04-22T18:14:59.433Z,94198.50
2023-04-22T18:17:27.119Z,94204.66
2023-04-22T18:20:02.732Z,94210.34
2023-04-22T18:22:32.288Z,94213.25
2023-04-22T18:25:01.854Z,94214.88
2023-04-22T18:27:29.619Z,94214.50
2023-04-22T18:29:57.309Z,94220.00
2023-04-22T18:32:24.989Z,94220.47
2023-04-22T18:34:52.641Z,94225.34
2023-04-22T18:37:21.028Z,94227.09
2023-04-22T18:39:49.994Z,94231.00
2023-04-22T18:42:17.607Z,94228.38
2023-04-22T18:44:45.364Z,94239.06
2023-04-22T18:47:13.006Z,94235.16
2023-04-22T18:49:40.671Z,94246.63
2023-04-22T18:52:08.465Z,94252.75
2023-04-22T18:54:36.210Z,94256.56
2023-04-22T18:57:05.847Z,94269.16
2023-04-22T18:59:33.563Z,94274.47
2023-04-22T19:02:01.497Z,94275.56
2023-04-22T19:04:29.190Z,94274.53
2023-04-22T19:06:57.319Z,94276.69
2023-04-22T19:09:24.999Z,94280.81
2023-04-22T19:11:52.632Z,94289.94
2023-04-22T19:14:21.688Z,94290.69
2023-04-22T19:16:49.371Z,94295.56
2023-04-22T19:19:17.065Z,94298.75
2023-04-22T19:21:45.052Z,94297.22
2023-04-22T19:24:14.278Z,94307.16
2023-04-22T19:26:42.076Z,94308.78
2023-04-22T19:29:10.695Z,94313.44
2023-04-22T19:31:39.917Z,94318.16
2023-04-22T19:34:07.765Z,94321.59
2023-04-22T19:36:35.426Z,94322.22
2023-04-22T19:39:06.063Z,94323.00
2023-04-22T19:41:34.891Z,94325.84
2023-04-22T19:44:02.562Z,94334.00
2023-04-22T19:46:30.231Z,94330.25
2023-04-22T19:48:59.813Z,94331.25
2023-04-22T19:51:27.534Z,94337.88
2023-04-22T19:53:55.684Z,94328.38
2023-04-22T19:56:23.511Z,94328.47
2023-04-22T19:58:51.955Z,94328.75
2023-04-22T20:01:19.968Z,94331.50
2023-04-22T20:03:48.372Z,94326.47
2023-04-22T20:06:17.761Z,94331.34
2023-04-22T20:08:45.501Z,94327.84
2023-04-22T20:11:13.492Z,94326.59
2023-04-22T20:13:42.252Z,94331.03
2023-04-22T20:16:10.715Z,94335.00
2023-04-22T20:18:38.776Z,94328.66
2023-04-22T20:21:06.561Z,94333.06
2023-04-22T20:23:35.650Z,94335.28
2023-04-22T20:26:04.549Z,94339.13
2023-04-22T20:28:44.090Z,94336.47
2023-04-22T20:31:12.088Z,94337.66
2023-04-22T20:33:40.023Z,94333.34
2023-04-22T20:36:08.670Z,94332.28
2023-04-22T20:38:38.290Z,94330.66
2023-04-22T20:41:07.197Z,94338.88
2023-04-22T20:43:34.942Z,94328.22
2023-04-22T20:46:02.659Z,94329.91
2023-04-22T20:48:30.392Z,94325.88
2023-04-22T20:50:58.058Z,94327.66
2023-04-22T20:53:27.130Z,94327.19
2023-04-22T20:55:56.124Z,94328.06
2023-04-22T20:58:23.841Z,94322.88
2023-04-22T21:00:51.650Z,94316.94
2023-04-22T21:03:19.650Z,94319.75
2023-04-22T21:05:47.454Z,94314.91
2023-04-22T21:08:23.037Z,94314.97
2023-04-22T21:10:52.140Z,94321.59
2023-04-22T21:13:21.952Z,94323.00
2023-04-22T21:15:56.213Z,94320.03
2023-04-22T21:18:25.604Z,94317.84
2023-04-22T21:20:54.377Z,94316.59
2023-04-22T21:23:23.917Z,94320.88
2023-04-22T21:25:54.312Z,94325.31
2023-04-22T21:28:24.614Z,94330.19
2023-04-22T21:30:52.884Z,94327.44
2023-04-22T21:33:20.766Z,94325.00
2023-04-22T21:35:48.498Z,94330.78
2023-04-22T21:38:17.013Z,94334.63
2023-04-22T21:40:44.777Z,94329.72
2023-04-22T21:43:12.406Z,94328.38
2023-04-22T21:45:41.492Z,94319.63
2023-04-22T21:48:09.254Z,94320.75
2023-04-22T21:50:37.046Z,94323.78
2023-04-22T21:53:04.722Z,94331.75
2023-04-22T21:55:32.391Z,94328.75
2023-04-22T21:58:00.098Z,94332.59
2023-04-22T22:00:27.828Z,94326.03
2023-04-22T22:02:57.010Z,94328.81
2023-04-22T22:05:24.762Z,94327.47
2023-04-22T22:07:52.936Z,94329.09
2023-04-22T22:10:20.624Z,94324.16
2023-04-22T22:12:48.495Z,94323.91
2023-04-22T22:15:16.663Z,94323.63
2023-04-22T22:17:44.668Z,94323.31
2023-04-22T22:20:16.672Z,94322.53
2023-04-22T22:22:45.569Z,94330.44
2023-04-22T22:25:15.686Z,94319.22
2023-04-22T22:27:45.556Z,94319.78
2023-04-22T22:30:13.640Z,94323.31
2023-04-22T22:32:41.370Z,94323.31
2023-04-22T22:35:09.905Z,94317.28
2023-04-22T22:37:39.002Z,94315.66
2023-04-22T22:40:08.680Z,94320.03
2023-04-22T22:42:36.367Z,94318.13
2023-04-22T22:45:05.552Z,94315.16
2023-04-22T22:47:33.310Z,94329.69
2023-04-22T22:50:00.990Z,94326.63
2023-04-22T22:52:28.748Z,94330.22
2023-04-22T22:54:57.721Z,94329.97
2023-04-22T22:57:25.404Z,94341.22
2023-04-22T22:59:53.040Z,94333.28
2023-04-22T23:02:20.906Z,94345.84
2023-04-22T23:04:48.858Z,94336.53
2023-04-22T23:07:16.657Z,94339.28
2023-04-22T23:09:44.286Z,94339.00
2023-04-22T23:12:13.298Z,94343.13
2023-04-22T23:14:41.416Z,94338.53
2023-04-22T23:17:09.373Z,94343.44
2023-04-22T23:19:37.429Z,94342.91
2023-04-22T23:22:06.836Z,94347.88
2023-04-22T23:24:34.989Z,94345.97
2023-04-22T23:27:03.206Z,94345.97
2023-04-22T23:29:33.090Z,94342.75
2023-04-22T23:32:02.596Z,94347.19
2023-04-22T23:34:33.695Z,94335.75
2023-04-22T23:37:03.508Z,94335.75
2023-04-22T23:39:31.161Z,94339.56
2023-04-22T23:41:58.853Z,94331.94
2023-04-22T23:44:26.540Z,94340.97
2023-04-22T23:46:55.629Z,94339.59
2023-04-22T23:49:23.425Z,94332.53
2023-04-22T23:51:51.554Z,94332.81
2023-04-22T23:54:19.222Z,94334.75
2023-04-22T23:56:47.608Z,94333.13
2023-04-22T23:59:15.806Z,94326.56
